sensor_id;sensor_type;location;lat;lon;timestamp;P1;durP1;ratioP1;P2;durP2;ratioP2
27303;SDS011;14791;52.392;13.092;2022-08-11T00:00:08;1.25;;;1.17;;
27303;SDS011;14791;52.392;13.092;2022-08-11T00:02:44;1.17;;;1.17;;
27303;SDS011;14791;52.392;13.092;2022-08-11T00:05:18;1.20;;;1.20;;
27303;SDS011;14791;52.392;13.092;2022-08-11T00:07:49;1.27;;;1.27;;
27303;SDS011;14791;52.392;13.092;2022-08-11T00:10:21;1.15;;;1.15;;
27303;SDS011;14791;52.392;13.092;2022-08-11T00:12:58;1.00;;;1.00;;
27303;SDS011;14791;52.392;13.092;2022-08-11T00:18:54;1.00;;;0.95;;
27303;SDS011;14791;52.392;13.092;2022-08-11T00:21:25;1.17;;;1.17;;
27303;SDS011;14791;52.392;13.092;2022-08-11T00:24:03;1.02;;;1.02;;
27303;SDS011;14791;52.392;13.092;2022-08-11T00:26:53;1.50;;;1.50;;
27303;SDS011;14791;52.392;13.092;2022-08-11T00:29:21;1.27;;;1.27;;
27303;SDS011;14791;52.392;13.092;2022-08-11T00:34:47;1.15;;;1.15;;
27303;SDS011;14791;52.392;13.092;2022-08-11T00:37:43;1.00;;;1.00;;
27303;SDS011;14791;52.392;13.092;2022-08-11T00:40:36;1.00;;;1.00;;
27303;SDS011;14791;52.392;13.092;2022-08-11T00:49:08;0.78;;;0.78;;
27303;SDS011;14791;52.392;13.092;2022-08-11T01:24:55;1.07;;;1.07;;
27303;SDS011;14791;52.392;13.092;2022-08-11T01:39:45;1.40;;;1.40;;
27303;SDS011;14791;52.392;13.092;2022-08-11T01:42:19;1.30;;;1.20;;
27303;SDS011;14791;52.392;13.092;2022-08-11T01:56:39;1.20;;;1.20;;
27303;SDS011;14791;52.392;13.092;2022-08-11T02:11:08;1.30;;;1.20;;
27303;SDS011;14791;52.392;13.092;2022-08-11T02:22:45;1.47;;;1.47;;
27303;SDS011;14791;52.392;13.092;2022-08-11T02:26:14;1.10;;;1.10;;
27303;SDS011;14791;52.392;13.092;2022-08-11T02:28:58;1.27;;;1.25;;
27303;SDS011;14791;52.392;13.092;2022-08-11T02:31:37;1.10;;;1.10;;
27303;SDS011;14791;52.392;13.092;2022-08-11T02:34:51;1.20;;;1.20;;
27303;SDS011;14791;52.392;13.092;2022-08-11T02:37:27;0.93;;;0.93;;
27303;SDS011;14791;52.392;13.092;2022-08-11T02:40:06;1.32;;;1.20;;
27303;SDS011;14791;52.392;13.092;2022-08-11T02:42:53;1.02;;;1.02;;
27303;SDS011;14791;52.392;13.092;2022-08-11T02:45:39;1.00;;;1.00;;
27303;SDS011;14791;52.392;13.092;2022-08-11T02:57:14;0.90;;;0.90;;
27303;SDS011;14791;52.392;13.092;2022-08-11T02:59:45;1.02;;;1.02;;
27303;SDS011;14791;52.392;13.092;2022-08-11T03:02:30;0.95;;;0.95;;
27303;SDS011;14791;52.392;13.092;2022-08-11T03:10:22;0.90;;;0.90;;
27303;SDS011;14791;52.392;13.092;2022-08-11T03:13:07;1.40;;;1.40;;
27303;SDS011;14791;52.392;13.092;2022-08-11T03:16:05;1.25;;;1.25;;
27303;SDS011;14791;52.392;13.092;2022-08-11T03:18:53;2.47;;;1.20;;
27303;SDS011;14791;52.392;13.092;2022-08-11T03:21:31;1.57;;;1.30;;
27303;SDS011;14791;52.392;13.092;2022-08-11T03:24:04;1.75;;;1.65;;
27303;SDS011;14791;52.392;13.092;2022-08-11T03:26:47;1.32;;;1.32;;
27303;SDS011;14791;52.392;13.092;2022-08-11T03:29:39;1.32;;;1.32;;
27303;SDS011;14791;52.392;13.092;2022-08-11T03:32:20;1.00;;;1.00;;
27303;SDS011;14791;52.392;13.092;2022-08-11T03:34:53;1.07;;;1.02;;
27303;SDS011;14791;52.392;13.092;2022-08-11T03:37:40;2.27;;;1.30;;
27303;SDS011;14791;52.392;13.092;2022-08-11T03:46:13;1.30;;;1.20;;
27303;SDS011;14791;52.392;13.092;2022-08-11T03:49:03;1.10;;;1.10;;
27303;SDS011;14791;52.392;13.092;2022-08-11T03:51:31;2.20;;;1.20;;
27303;SDS011;14791;52.392;13.092;2022-08-11T03:54:09;1.35;;;1.35;;
27303;SDS011;14791;52.392;13.092;2022-08-11T04:08:28;1.30;;;1.25;;
27303;SDS011;14791;52.392;13.092;2022-08-11T04:11:17;2.20;;;1.70;;
27303;SDS011;14791;52.392;13.092;2022-08-11T04:22:43;0.90;;;0.90;;
27303;SDS011;14791;52.392;13.092;2022-08-11T04:28:41;1.40;;;1.40;;
27303;SDS011;14791;52.392;13.092;2022-08-11T04:34:23;1.70;;;1.70;;
27303;SDS011;14791;52.392;13.092;2022-08-11T04:36:58;1.35;;;1.35;;
27303;SDS011;14791;52.392;13.092;2022-08-11T04:45:43;1.62;;;1.62;;
27303;SDS011;14791;52.392;13.092;2022-08-11T04:58:23;1.40;;;1.40;;
27303;SDS011;14791;52.392;13.092;2022-08-11T05:04:15;1.60;;;1.50;;
27303;SDS011;14791;52.392;13.092;2022-08-11T05:12:59;1.47;;;1.37;;
27303;SDS011;14791;52.392;13.092;2022-08-11T05:15:52;1.37;;;1.37;;
27303;SDS011;14791;52.392;13.092;2022-08-11T05:18:49;1.70;;;1.70;;
27303;SDS011;14791;52.392;13.092;2022-08-11T05:21:33;3.72;;;2.37;;
27303;SDS011;14791;52.392;13.092;2022-08-11T05:24:31;2.33;;;2.20;;
27303;SDS011;14791;52.392;13.092;2022-08-11T05:27:19;1.75;;;1.65;;
27303;SDS011;14791;52.392;13.092;2022-08-11T05:30:09;1.50;;;1.50;;
27303;SDS011;14791;52.392;13.092;2022-08-11T05:33:11;1.50;;;1.50;;
27303;SDS011;14791;52.392;13.092;2022-08-11T05:36:11;1.65;;;1.65;;
27303;SDS011;14791;52.392;13.092;2022-08-11T05:38:39;1.55;;;1.55;;
27303;SDS011;14791;52.392;13.092;2022-08-11T05:41:29;2.17;;;1.75;;
27303;SDS011;14791;52.392;13.092;2022-08-11T05:44:17;1.77;;;1.60;;
27303;SDS011;14791;52.392;13.092;2022-08-11T05:47:05;1.90;;;1.80;;
27303;SDS011;14791;52.392;13.092;2022-08-11T05:49:53;2.22;;;2.10;;
27303;SDS011;14791;52.392;13.092;2022-08-11T05:52:44;1.72;;;1.72;;
27303;SDS011;14791;52.392;13.092;2022-08-11T05:55:31;2.02;;;1.92;;
27303;SDS011;14791;52.392;13.092;2022-08-11T05:58:20;2.45;;;2.35;;
27303;SDS011;14791;52.392;13.092;2022-08-11T06:00:49;1.75;;;1.60;;
27303;SDS011;14791;52.392;13.092;2022-08-11T06:03:21;1.85;;;1.75;;
27303;SDS011;14791;52.392;13.092;2022-08-11T06:05:52;2.58;;;2.37;;
27303;SDS011;14791;52.392;13.092;2022-08-11T06:08:33;1.72;;;1.70;;
27303;SDS011;14791;52.392;13.092;2022-08-11T06:11:03;2.15;;;2.02;;
27303;SDS011;14791;52.392;13.092;2022-08-11T06:13:32;2.33;;;2.33;;
27303;SDS011;14791;52.392;13.092;2022-08-11T06:16:02;1.95;;;1.85;;
27303;SDS011;14791;52.392;13.092;2022-08-11T06:18:32;1.85;;;1.75;;
27303;SDS011;14791;52.392;13.092;2022-08-11T06:21:07;1.77;;;1.77;;
27303;SDS011;14791;52.392;13.092;2022-08-11T06:23:34;1.95;;;1.90;;
27303;SDS011;14791;52.392;13.092;2022-08-11T06:26:07;2.05;;;1.98;;
27303;SDS011;14791;52.392;13.092;2022-08-11T06:28:38;1.92;;;1.92;;
27303;SDS011;14791;52.392;13.092;2022-08-11T06:31:11;2.08;;;2.02;;
27303;SDS011;14791;52.392;13.092;2022-08-11T06:36:41;2.12;;;2.02;;
27303;SDS011;14791;52.392;13.092;2022-08-11T06:44:29;2.25;;;2.10;;
27303;SDS011;14791;52.392;13.092;2022-08-11T06:47:04;1.87;;;1.87;;
27303;SDS011;14791;52.392;13.092;2022-08-11T06:49:44;1.90;;;1.80;;
27303;SDS011;14791;52.392;13.092;2022-08-11T06:52:34;1.40;;;1.40;;
27303;SDS011;14791;52.392;13.092;2022-08-11T06:55:14;2.50;;;2.30;;
27303;SDS011;14791;52.392;13.092;2022-08-11T06:57:52;2.15;;;2.10;;
27303;SDS011;14791;52.392;13.092;2022-08-11T07:00:40;1.67;;;1.67;;
27303;SDS011;14791;52.392;13.092;2022-08-11T07:03:11;2.17;;;2.08;;
27303;SDS011;14791;52.392;13.092;2022-08-11T07:05:57;2.00;;;1.90;;
27303;SDS011;14791;52.392;13.092;2022-08-11T07:14:17;2.12;;;2.02;;
27303;SDS011;14791;52.392;13.092;2022-08-11T07:17:05;2.08;;;1.98;;
27303;SDS011;14791;52.392;13.092;2022-08-11T07:19:36;1.98;;;1.72;;
27303;SDS011;14791;52.392;13.092;2022-08-11T07:22:26;2.00;;;1.90;;
27303;SDS011;14791;52.392;13.092;2022-08-11T07:25:18;2.52;;;1.90;;
27303;SDS011;14791;52.392;13.092;2022-08-11T07:28:28;1.90;;;1.90;;
27303;SDS011;14791;52.392;13.092;2022-08-11T07:31:13;1.45;;;1.42;;
27303;SDS011;14791;52.392;13.092;2022-08-11T07:33:56;1.82;;;1.82;;
27303;SDS011;14791;52.392;13.092;2022-08-11T07:36:24;2.30;;;2.10;;
27303;SDS011;14791;52.392;13.092;2022-08-11T07:38:55;1.98;;;1.87;;
27303;SDS011;14791;52.392;13.092;2022-08-11T07:41:25;1.80;;;1.62;;
27303;SDS011;14791;52.392;13.092;2022-08-11T07:43:57;2.12;;;2.05;;
27303;SDS011;14791;52.392;13.092;2022-08-11T07:46:29;2.33;;;2.22;;
27303;SDS011;14791;52.392;13.092;2022-08-11T07:49:16;2.40;;;2.30;;
27303;SDS011;14791;52.392;13.092;2022-08-11T07:52:03;3.35;;;2.10;;
27303;SDS011;14791;52.392;13.092;2022-08-11T07:54:50;1.90;;;1.80;;
27303;SDS011;14791;52.392;13.092;2022-08-11T07:57:20;2.35;;;2.30;;
27303;SDS011;14791;52.392;13.092;2022-08-11T08:00:08;1.90;;;1.80;;
27303;SDS011;14791;52.392;13.092;2022-08-11T08:02:58;1.47;;;1.47;;
27303;SDS011;14791;52.392;13.092;2022-08-11T08:05:45;1.70;;;1.70;;
27303;SDS011;14791;52.392;13.092;2022-08-11T08:08:35;1.55;;;1.55;;
27303;SDS011;14791;52.392;13.092;2022-08-11T08:11:23;1.75;;;1.75;;
27303;SDS011;14791;52.392;13.092;2022-08-11T08:14:11;1.92;;;1.92;;
27303;SDS011;14791;52.392;13.092;2022-08-11T08:16:57;1.98;;;1.87;;
27303;SDS011;14791;52.392;13.092;2022-08-11T08:19:46;1.80;;;1.80;;
27303;SDS011;14791;52.392;13.092;2022-08-11T08:22:19;3.02;;;1.98;;
27303;SDS011;14791;52.392;13.092;2022-08-11T08:24:49;1.90;;;1.90;;
27303;SDS011;14791;52.392;13.092;2022-08-11T08:27:19;1.85;;;1.85;;
27303;SDS011;14791;52.392;13.092;2022-08-11T08:29:50;1.98;;;1.98;;
27303;SDS011;14791;52.392;13.092;2022-08-11T08:32:38;1.80;;;1.80;;
27303;SDS011;14791;52.392;13.092;2022-08-11T08:35:09;1.65;;;1.57;;
27303;SDS011;14791;52.392;13.092;2022-08-11T08:37:39;1.62;;;1.62;;
27303;SDS011;14791;52.392;13.092;2022-08-11T08:40:08;1.35;;;1.35;;
27303;SDS011;14791;52.392;13.092;2022-08-11T08:42:40;1.62;;;1.62;;
27303;SDS011;14791;52.392;13.092;2022-08-11T08:45:11;1.27;;;1.27;;
27303;SDS011;14791;52.392;13.092;2022-08-11T08:47:45;1.62;;;1.62;;
27303;SDS011;14791;52.392;13.092;2022-08-11T08:50:20;2.10;;;2.10;;
27303;SDS011;14791;52.392;13.092;2022-08-11T08:52:57;1.65;;;1.60;;
27303;SDS011;14791;52.392;13.092;2022-08-11T08:55:27;1.50;;;1.50;;
27303;SDS011;14791;52.392;13.092;2022-08-11T08:57:57;1.55;;;1.55;;
27303;SDS011;14791;52.392;13.092;2022-08-11T09:00:41;1.12;;;1.12;;
27303;SDS011;14791;52.392;13.092;2022-08-11T09:03:12;1.90;;;1.45;;
27303;SDS011;14791;52.392;13.092;2022-08-11T09:05:41;1.67;;;1.67;;
27303;SDS011;14791;52.392;13.092;2022-08-11T09:08:10;1.30;;;1.30;;
27303;SDS011;14791;52.392;13.092;2022-08-11T09:10:39;1.92;;;1.82;;
27303;SDS011;14791;52.392;13.092;2022-08-11T09:13:08;1.75;;;1.65;;
27303;SDS011;14791;52.392;13.092;2022-08-11T09:15:37;1.95;;;1.47;;
27303;SDS011;14791;52.392;13.092;2022-08-11T09:18:07;1.67;;;1.55;;
27303;SDS011;14791;52.392;13.092;2022-08-11T09:20:38;1.35;;;1.35;;
27303;SDS011;14791;52.392;13.092;2022-08-11T09:23:07;1.20;;;1.20;;
27303;SDS011;14791;52.392;13.092;2022-08-11T09:25:56;1.80;;;1.70;;
27303;SDS011;14791;52.392;13.092;2022-08-11T09:28:44;1.30;;;1.30;;
27303;SDS011;14791;52.392;13.092;2022-08-11T09:31:15;1.30;;;1.30;;
27303;SDS011;14791;52.392;13.092;2022-08-11T09:33:45;1.82;;;1.72;;
27303;SDS011;14791;52.392;13.092;2022-08-11T09:36:15;2.15;;;2.15;;
27303;SDS011;14791;52.392;13.092;2022-08-11T09:39:05;1.85;;;1.57;;
27303;SDS011;14791;52.392;13.092;2022-08-11T09:41:53;2.10;;;1.42;;
27303;SDS011;14791;52.392;13.092;2022-08-11T09:44:22;2.02;;;1.98;;
27303;SDS011;14791;52.392;13.092;2022-08-11T09:47:10;1.42;;;1.42;;
27303;SDS011;14791;52.392;13.092;2022-08-11T09:49:42;2.00;;;1.90;;
27303;SDS011;14791;52.392;13.092;2022-08-11T09:52:12;2.35;;;1.67;;
27303;SDS011;14791;52.392;13.092;2022-08-11T09:54:43;1.40;;;1.40;;
27303;SDS011;14791;52.392;13.092;2022-08-11T09:57:13;2.45;;;1.50;;
27303;SDS011;14791;52.392;13.092;2022-08-11T10:00:06;1.00;;;1.00;;
27303;SDS011;14791;52.392;13.092;2022-08-11T10:02:46;1.45;;;1.45;;
27303;SDS011;14791;52.392;13.092;2022-08-11T10:05:13;1.65;;;1.60;;
27303;SDS011;14791;52.392;13.092;2022-08-11T10:08:03;1.40;;;1.30;;
27303;SDS011;14791;52.392;13.092;2022-08-11T10:10:37;1.60;;;1.50;;
27303;SDS011;14791;52.392;13.092;2022-08-11T10:13:08;1.47;;;1.42;;
27303;SDS011;14791;52.392;13.092;2022-08-11T10:15:39;1.20;;;1.20;;
27303;SDS011;14791;52.392;13.092;2022-08-11T10:18:14;1.40;;;1.40;;
27303;SDS011;14791;52.392;13.092;2022-08-11T10:21:05;1.52;;;1.47;;
27303;SDS011;14791;52.392;13.092;2022-08-11T10:23:34;2.25;;;1.67;;
27303;SDS011;14791;52.392;13.092;2022-08-11T10:26:23;1.50;;;1.50;;
27303;SDS011;14791;52.392;13.092;2022-08-11T10:29:12;1.85;;;1.80;;
27303;SDS011;14791;52.392;13.092;2022-08-11T10:32:00;1.40;;;1.35;;
27303;SDS011;14791;52.392;13.092;2022-08-11T10:34:48;1.37;;;1.37;;
27303;SDS011;14791;52.392;13.092;2022-08-11T10:37:19;1.70;;;1.70;;
27303;SDS011;14791;52.392;13.092;2022-08-11T10:39:51;1.40;;;1.40;;
27303;SDS011;14791;52.392;13.092;2022-08-11T10:42:22;1.57;;;1.57;;
27303;SDS011;14791;52.392;13.092;2022-08-11T10:45:09;1.60;;;1.60;;
27303;SDS011;14791;52.392;13.092;2022-08-11T10:47:57;1.35;;;1.35;;
27303;SDS011;14791;52.392;13.092;2022-08-11T10:50:26;1.57;;;1.47;;
27303;SDS011;14791;52.392;13.092;2022-08-11T10:53:13;1.45;;;1.45;;
27303;SDS011;14791;52.392;13.092;2022-08-11T10:56:02;1.47;;;1.37;;
27303;SDS011;14791;52.392;13.092;2022-08-11T10:58:50;1.55;;;1.45;;
27303;SDS011;14791;52.392;13.092;2022-08-11T11:03:59;1.50;;;1.50;;
27303;SDS011;14791;52.392;13.092;2022-08-11T11:06:45;1.40;;;1.40;;
27303;SDS011;14791;52.392;13.092;2022-08-11T11:09:26;1.85;;;1.75;;
27303;SDS011;14791;52.392;13.092;2022-08-11T11:12:12;1.30;;;1.30;;
27303;SDS011;14791;52.392;13.092;2022-08-11T11:15:01;1.50;;;1.50;;
27303;SDS011;14791;52.392;13.092;2022-08-11T11:20:41;1.20;;;1.20;;
27303;SDS011;14791;52.392;13.092;2022-08-11T11:23:24;1.60;;;1.50;;
27303;SDS011;14791;52.392;13.092;2022-08-11T11:28:54;1.40;;;1.40;;
27303;SDS011;14791;52.392;13.092;2022-08-11T11:36:49;1.45;;;1.45;;
27303;SDS011;14791;52.392;13.092;2022-08-11T11:39:22;1.45;;;1.35;;
27303;SDS011;14791;52.392;13.092;2022-08-11T11:41:54;1.50;;;1.50;;
27303;SDS011;14791;52.392;13.092;2022-08-11T11:44:25;1.77;;;1.67;;
27303;SDS011;14791;52.392;13.092;2022-08-11T11:46:55;1.30;;;1.30;;
27303;SDS011;14791;52.392;13.092;2022-08-11T11:49:27;2.30;;;1.47;;
27303;SDS011;14791;52.392;13.092;2022-08-11T11:51:58;1.57;;;1.47;;
27303;SDS011;14791;52.392;13.092;2022-08-11T11:54:28;3.22;;;1.75;;
27303;SDS011;14791;52.392;13.092;2022-08-11T11:57:03;1.37;;;1.37;;
27303;SDS011;14791;52.392;13.092;2022-08-11T11:59:50;1.42;;;1.42;;
27303;SDS011;14791;52.392;13.092;2022-08-11T12:02:39;1.57;;;1.57;;
27303;SDS011;14791;52.392;13.092;2022-08-11T12:05:09;1.52;;;1.52;;
27303;SDS011;14791;52.392;13.092;2022-08-11T12:07:41;1.65;;;1.65;;
27303;SDS011;14791;52.392;13.092;2022-08-11T12:10:29;1.65;;;1.55;;
27303;SDS011;14791;52.392;13.092;2022-08-11T12:13:00;2.05;;;1.82;;
27303;SDS011;14791;52.392;13.092;2022-08-11T12:15:47;1.82;;;1.40;;
27303;SDS011;14791;52.392;13.092;2022-08-11T12:18:19;1.75;;;1.75;;
27303;SDS011;14791;52.392;13.092;2022-08-11T12:20:48;1.62;;;1.52;;
27303;SDS011;14791;52.392;13.092;2022-08-11T12:23:18;1.32;;;1.32;;
27303;SDS011;14791;52.392;13.092;2022-08-11T12:26:05;1.75;;;1.65;;
27303;SDS011;14791;52.392;13.092;2022-08-11T12:28:52;1.50;;;1.50;;
27303;SDS011;14791;52.392;13.092;2022-08-11T12:31:22;1.70;;;1.70;;
27303;SDS011;14791;52.392;13.092;2022-08-11T12:33:52;1.85;;;1.75;;
27303;SDS011;14791;52.392;13.092;2022-08-11T12:36:23;1.85;;;1.77;;
27303;SDS011;14791;52.392;13.092;2022-08-11T12:38:53;1.30;;;1.30;;
27303;SDS011;14791;52.392;13.092;2022-08-11T12:41:23;1.55;;;1.45;;
27303;SDS011;14791;52.392;13.092;2022-08-11T12:44:10;1.37;;;1.37;;
27303;SDS011;14791;52.392;13.092;2022-08-11T12:46:58;1.40;;;1.20;;
27303;SDS011;14791;52.392;13.092;2022-08-11T12:49:30;1.50;;;1.50;;
27303;SDS011;14791;52.392;13.092;2022-08-11T12:52:23;2.10;;;2.00;;
27303;SDS011;14791;52.392;13.092;2022-08-11T12:54:58;1.70;;;1.60;;
27303;SDS011;14791;52.392;13.092;2022-08-11T12:57:44;1.80;;;1.67;;
27303;SDS011;14791;52.392;13.092;2022-08-11T13:00:31;1.87;;;1.87;;
27303;SDS011;14791;52.392;13.092;2022-08-11T13:03:19;1.55;;;1.55;;
27303;SDS011;14791;52.392;13.092;2022-08-11T13:06:06;1.92;;;1.82;;
27303;SDS011;14791;52.392;13.092;2022-08-11T13:08:36;1.80;;;1.80;;
27303;SDS011;14791;52.392;13.092;2022-08-11T13:11:08;4.12;;;4.03;;
27303;SDS011;14791;52.392;13.092;2022-08-11T13:13:55;3.02;;;2.80;;
27303;SDS011;14791;52.392;13.092;2022-08-11T13:16:28;1.90;;;1.80;;
27303;SDS011;14791;52.392;13.092;2022-08-11T13:19:01;1.90;;;1.72;;
27303;SDS011;14791;52.392;13.092;2022-08-11T13:21:30;1.85;;;1.85;;
27303;SDS011;14791;52.392;13.092;2022-08-11T13:24:00;1.70;;;1.70;;
27303;SDS011;14791;52.392;13.092;2022-08-11T13:26:30;1.65;;;1.65;;
27303;SDS011;14791;52.392;13.092;2022-08-11T13:29:03;1.67;;;1.67;;
27303;SDS011;14791;52.392;13.092;2022-08-11T13:31:33;1.85;;;1.82;;
27303;SDS011;14791;52.392;13.092;2022-08-11T13:34:02;1.80;;;1.80;;
27303;SDS011;14791;52.392;13.092;2022-08-11T13:36:34;2.35;;;2.15;;
27303;SDS011;14791;52.392;13.092;2022-08-11T13:39:04;1.90;;;1.80;;
27303;SDS011;14791;52.392;13.092;2022-08-11T13:41:34;1.70;;;1.70;;
27303;SDS011;14791;52.392;13.092;2022-08-11T13:44:05;2.10;;;2.08;;
27303;SDS011;14791;52.392;13.092;2022-08-11T13:46:38;1.72;;;1.72;;
27303;SDS011;14791;52.392;13.092;2022-08-11T13:49:09;1.60;;;1.60;;
27303;SDS011;14791;52.392;13.092;2022-08-11T13:51:40;1.45;;;1.45;;
27303;SDS011;14791;52.392;13.092;2022-08-11T13:54:21;1.85;;;1.85;;
27303;SDS011;14791;52.392;13.092;2022-08-11T13:56:49;2.00;;;2.00;;
27303;SDS011;14791;52.392;13.092;2022-08-11T13:59:20;1.80;;;1.80;;
27303;SDS011;14791;52.392;13.092;2022-08-11T14:01:58;2.02;;;2.02;;
27303;SDS011;14791;52.392;13.092;2022-08-11T14:04:27;2.10;;;2.02;;
27303;SDS011;14791;52.392;13.092;2022-08-11T14:06:59;1.75;;;1.65;;
27303;SDS011;14791;52.392;13.092;2022-08-11T14:09:31;1.77;;;1.72;;
27303;SDS011;14791;52.392;13.092;2022-08-11T14:12:12;1.95;;;1.95;;
27303;SDS011;14791;52.392;13.092;2022-08-11T14:15:00;1.65;;;1.65;;
27303;SDS011;14791;52.392;13.092;2022-08-11T14:17:33;1.90;;;1.82;;
27303;SDS011;14791;52.392;13.092;2022-08-11T14:20:05;1.87;;;1.87;;
27303;SDS011;14791;52.392;13.092;2022-08-11T14:22:37;2.30;;;2.30;;
27303;SDS011;14791;52.392;13.092;2022-08-11T14:25:09;3.20;;;3.10;;
27303;SDS011;14791;52.392;13.092;2022-08-11T14:27:42;2.25;;;2.25;;
27303;SDS011;14791;52.392;13.092;2022-08-11T14:30:13;2.20;;;2.12;;
27303;SDS011;14791;52.392;13.092;2022-08-11T14:33:00;1.80;;;1.80;;
27303;SDS011;14791;52.392;13.092;2022-08-11T14:35:30;1.70;;;1.70;;
27303;SDS011;14791;52.392;13.092;2022-08-11T14:37:59;1.60;;;1.60;;
27303;SDS011;14791;52.392;13.092;2022-08-11T14:40:29;1.75;;;1.75;;
27303;SDS011;14791;52.392;13.092;2022-08-11T14:43:16;1.62;;;1.62;;
27303;SDS011;14791;52.392;13.092;2022-08-11T14:46:03;1.50;;;1.50;;
27303;SDS011;14791;52.392;13.092;2022-08-11T14:48:50;1.98;;;1.98;;
27303;SDS011;14791;52.392;13.092;2022-08-11T14:51:20;2.22;;;2.12;;
27303;SDS011;14791;52.392;13.092;2022-08-11T14:53:50;1.95;;;1.95;;
27303;SDS011;14791;52.392;13.092;2022-08-11T14:56:21;1.82;;;1.82;;
27303;SDS011;14791;52.392;13.092;2022-08-11T14:59:03;2.22;;;1.80;;
27303;SDS011;14791;52.392;13.092;2022-08-11T15:01:33;1.80;;;1.80;;
27303;SDS011;14791;52.392;13.092;2022-08-11T15:04:20;1.72;;;1.72;;
27303;SDS011;14791;52.392;13.092;2022-08-11T15:06:50;1.72;;;1.62;;
27303;SDS011;14791;52.392;13.092;2022-08-11T15:09:20;1.70;;;1.70;;
27303;SDS011;14791;52.392;13.092;2022-08-11T15:11:49;1.72;;;1.62;;
27303;SDS011;14791;52.392;13.092;2022-08-11T15:14:38;1.55;;;1.55;;
27303;SDS011;14791;52.392;13.092;2022-08-11T15:17:26;1.65;;;1.65;;
27303;SDS011;14791;52.392;13.092;2022-08-11T15:19:56;1.47;;;1.47;;
27303;SDS011;14791;52.392;13.092;2022-08-11T15:22:44;1.37;;;1.37;;
27303;SDS011;14791;52.392;13.092;2022-08-11T15:25:33;1.60;;;1.60;;
27303;SDS011;14791;52.392;13.092;2022-08-11T15:28:03;1.40;;;1.40;;
27303;SDS011;14791;52.392;13.092;2022-08-11T15:30:51;1.90;;;1.80;;
27303;SDS011;14791;52.392;13.092;2022-08-11T15:33:42;1.57;;;1.57;;
27303;SDS011;14791;52.392;13.092;2022-08-11T15:36:23;1.50;;;1.50;;
27303;SDS011;14791;52.392;13.092;2022-08-11T15:39:15;1.62;;;1.57;;
27303;SDS011;14791;52.392;13.092;2022-08-11T15:41:53;1.92;;;1.30;;
27303;SDS011;14791;52.392;13.092;2022-08-11T15:44:55;1.52;;;1.45;;
27303;SDS011;14791;52.392;13.092;2022-08-11T15:47:45;1.50;;;1.50;;
27303;SDS011;14791;52.392;13.092;2022-08-11T15:50:21;1.87;;;1.67;;
27303;SDS011;14791;52.392;13.092;2022-08-11T15:53:05;1.50;;;1.50;;
27303;SDS011;14791;52.392;13.092;2022-08-11T15:55:29;1.35;;;1.35;;
27303;SDS011;14791;52.392;13.092;2022-08-11T15:58:01;1.20;;;1.10;;
27303;SDS011;14791;52.392;13.092;2022-08-11T16:00:50;1.35;;;1.22;;
27303;SDS011;14791;52.392;13.092;2022-08-11T16:03:46;1.62;;;1.30;;
27303;SDS011;14791;52.392;13.092;2022-08-11T16:06:32;1.70;;;1.70;;
27303;SDS011;14791;52.392;13.092;2022-08-11T16:09:02;1.40;;;1.40;;
27303;SDS011;14791;52.392;13.092;2022-08-11T16:11:33;1.40;;;1.40;;
27303;SDS011;14791;52.392;13.092;2022-08-11T16:14:04;1.30;;;1.30;;
27303;SDS011;14791;52.392;13.092;2022-08-11T16:16:53;1.52;;;1.42;;
27303;SDS011;14791;52.392;13.092;2022-08-11T16:19:24;3.12;;;1.25;;
27303;SDS011;14791;52.392;13.092;2022-08-11T16:21:57;1.10;;;1.10;;
27303;SDS011;14791;52.392;13.092;2022-08-11T16:24:27;0.93;;;0.93;;
27303;SDS011;14791;52.392;13.092;2022-08-11T16:26:58;1.10;;;1.10;;
27303;SDS011;14791;52.392;13.092;2022-08-11T16:29:28;1.40;;;1.40;;
27303;SDS011;14791;52.392;13.092;2022-08-11T16:31:59;1.98;;;1.25;;
27303;SDS011;14791;52.392;13.092;2022-08-11T16:34:41;1.10;;;1.10;;
27303;SDS011;14791;52.392;13.092;2022-08-11T16:37:32;1.30;;;1.07;;
27303;SDS011;14791;52.392;13.092;2022-08-11T16:40:19;1.20;;;1.20;;
27303;SDS011;14791;52.392;13.092;2022-08-11T16:42:49;1.20;;;1.20;;
27303;SDS011;14791;52.392;13.092;2022-08-11T16:45:39;2.08;;;1.87;;
27303;SDS011;14791;52.392;13.092;2022-08-11T16:48:31;1.50;;;1.50;;
27303;SDS011;14791;52.392;13.092;2022-08-11T16:51:01;1.05;;;1.05;;
27303;SDS011;14791;52.392;13.092;2022-08-11T16:53:31;1.20;;;1.17;;
27303;SDS011;14791;52.392;13.092;2022-08-11T16:56:01;1.12;;;1.12;;
27303;SDS011;14791;52.392;13.092;2022-08-11T16:58:33;1.20;;;1.20;;
27303;SDS011;14791;52.392;13.092;2022-08-11T17:01:23;1.00;;;1.00;;
27303;SDS011;14791;52.392;13.092;2022-08-11T17:03:56;1.32;;;1.32;;
27303;SDS011;14791;52.392;13.092;2022-08-11T17:06:46;1.12;;;1.12;;
27303;SDS011;14791;52.392;13.092;2022-08-11T17:09:34;1.00;;;1.00;;
27303;SDS011;14791;52.392;13.092;2022-08-11T17:12:24;1.20;;;1.20;;
27303;SDS011;14791;52.392;13.092;2022-08-11T17:15:16;0.80;;;0.80;;
27303;SDS011;14791;52.392;13.092;2022-08-11T17:18:05;0.90;;;0.90;;
27303;SDS011;14791;52.392;13.092;2022-08-11T17:20:36;2.52;;;1.10;;
27303;SDS011;14791;52.392;13.092;2022-08-11T17:23:07;1.05;;;1.05;;
27303;SDS011;14791;52.392;13.092;2022-08-11T17:25:54;1.30;;;1.30;;
27303;SDS011;14791;52.392;13.092;2022-08-11T17:28:24;1.00;;;1.00;;
27303;SDS011;14791;52.392;13.092;2022-08-11T17:30:54;1.00;;;1.00;;
27303;SDS011;14791;52.392;13.092;2022-08-11T17:33:41;0.88;;;0.88;;
27303;SDS011;14791;52.392;13.092;2022-08-11T17:36:28;0.90;;;0.90;;
27303;SDS011;14791;52.392;13.092;2022-08-11T17:38:57;1.00;;;1.00;;
27303;SDS011;14791;52.392;13.092;2022-08-11T17:41:26;1.32;;;1.25;;
27303;SDS011;14791;52.392;13.092;2022-08-11T17:44:13;1.20;;;1.20;;
27303;SDS011;14791;52.392;13.092;2022-08-11T17:47:00;1.17;;;1.17;;
27303;SDS011;14791;52.392;13.092;2022-08-11T17:49:48;1.02;;;1.02;;
27303;SDS011;14791;52.392;13.092;2022-08-11T17:52:19;1.37;;;1.27;;
27303;SDS011;14791;52.392;13.092;2022-08-11T17:55:09;1.55;;;1.55;;
27303;SDS011;14791;52.392;13.092;2022-08-11T17:57:57;0.88;;;0.88;;
27303;SDS011;14791;52.392;13.092;2022-08-11T18:00:44;1.45;;;0.82;;
27303;SDS011;14791;52.392;13.092;2022-08-11T18:03:14;2.20;;;0.80;;
27303;SDS011;14791;52.392;13.092;2022-08-11T18:05:59;1.22;;;1.22;;
27303;SDS011;14791;52.392;13.092;2022-08-11T18:08:29;0.90;;;0.90;;
27303;SDS011;14791;52.392;13.092;2022-08-11T18:11:17;1.15;;;1.15;;
27303;SDS011;14791;52.392;13.092;2022-08-11T18:14:06;1.30;;;1.30;;
27303;SDS011;14791;52.392;13.092;2022-08-11T18:16:54;1.10;;;1.10;;
27303;SDS011;14791;52.392;13.092;2022-08-11T18:19:41;1.17;;;1.17;;
27303;SDS011;14791;52.392;13.092;2022-08-11T18:22:35;1.37;;;1.37;;
27303;SDS011;14791;52.392;13.092;2022-08-11T18:25:31;1.05;;;1.05;;
27303;SDS011;14791;52.392;13.092;2022-08-11T18:28:20;1.35;;;1.02;;
27303;SDS011;14791;52.392;13.092;2022-08-11T18:31:06;1.00;;;1.00;;
27303;SDS011;14791;52.392;13.092;2022-08-11T18:33:56;0.82;;;0.82;;
27303;SDS011;14791;52.392;13.092;2022-08-11T18:36:47;1.07;;;1.07;;
27303;SDS011;14791;52.392;13.092;2022-08-11T18:39:34;0.80;;;0.78;;
27303;SDS011;14791;52.392;13.092;2022-08-11T18:42:23;0.93;;;0.93;;
27303;SDS011;14791;52.392;13.092;2022-08-11T18:45:14;1.60;;;1.20;;
27303;SDS011;14791;52.392;13.092;2022-08-11T18:48:05;1.67;;;1.05;;
27303;SDS011;14791;52.392;13.092;2022-08-11T18:50:52;1.00;;;1.00;;
27303;SDS011;14791;52.392;13.092;2022-08-11T18:53:42;1.10;;;1.10;;